Big Canoe, Georgia
Current Conditions -  °F | °C
As of 11:55 AM on Saturday 22 Nov 2014 (Local Time) from KCNI Reporting Station
Clear Clear  
Wind Chill: 54°   Ceiling: Unl
Heat Index: 54°   Visibility: 10mi
Dew Point:   Wind: 12mph
Humidity: 16%   Direction: 100°E
Pressure: 30.42"   Gusts: 18mph
Location:  34.4645°N, 84.4746°W
Report Text: KCNI 221655Z AUTO 10010G16KT 10SM CLR 12/M13 A3042 RMK AO2
Loading
Personal Weather Stations






























Interactive Weather Map New forecast layout! Learn more

10-Day Weather Forecast

Advertisements
Track Severe Weather on mobile